sensor_id;sensor_type;location;lat;lon;timestamp;P1;durP1;ratioP1;P2;durP2;ratioP2
568;SDS011;269;48.884;9.192;2024-01-06T00:01:28;3.72;;;3.10;;
568;SDS011;269;48.884;9.192;2024-01-06T00:03:55;5.00;;;4.32;;
568;SDS011;269;48.884;9.192;2024-01-06T00:06:23;5.57;;;3.60;;
568;SDS011;269;48.884;9.192;2024-01-06T00:08:50;3.60;;;3.30;;
568;SDS011;269;48.884;9.192;2024-01-06T00:11:19;8.13;;;4.45;;
568;SDS011;269;48.884;9.192;2024-01-06T00:13:45;4.30;;;3.88;;
568;SDS011;269;48.884;9.192;2024-01-06T00:16:12;6.30;;;4.05;;
568;SDS011;269;48.884;9.192;2024-01-06T00:18:38;4.72;;;4.22;;
568;SDS011;269;48.884;9.192;2024-01-06T00:21:05;5.03;;;4.53;;
568;SDS011;269;48.884;9.192;2024-01-06T00:23:33;4.93;;;3.80;;
568;SDS011;269;48.884;9.192;2024-01-06T00:26:00;4.68;;;3.60;;
568;SDS011;269;48.884;9.192;2024-01-06T00:28:27;3.65;;;3.30;;
568;SDS011;269;48.884;9.192;2024-01-06T00:30:54;4.00;;;3.70;;
568;SDS011;269;48.884;9.192;2024-01-06T00:33:20;4.72;;;3.75;;
568;SDS011;269;48.884;9.192;2024-01-06T00:35:47;4.80;;;3.40;;
568;SDS011;269;48.884;9.192;2024-01-06T00:38:13;5.32;;;3.85;;
568;SDS011;269;48.884;9.192;2024-01-06T00:40:41;5.25;;;3.90;;
568;SDS011;269;48.884;9.192;2024-01-06T00:43:09;5.57;;;3.55;;
568;SDS011;269;48.884;9.192;2024-01-06T00:45:35;4.72;;;3.42;;
568;SDS011;269;48.884;9.192;2024-01-06T00:48:02;6.95;;;3.22;;
568;SDS011;269;48.884;9.192;2024-01-06T00:50:29;4.32;;;3.92;;
568;SDS011;269;48.884;9.192;2024-01-06T00:52:55;5.38;;;3.75;;
568;SDS011;269;48.884;9.192;2024-01-06T00:55:22;4.45;;;3.95;;
568;SDS011;269;48.884;9.192;2024-01-06T00:57:51;3.95;;;3.50;;
568;SDS011;269;48.884;9.192;2024-01-06T01:00:24;3.58;;;3.28;;
568;SDS011;269;48.884;9.192;2024-01-06T01:02:52;3.83;;;3.42;;
568;SDS011;269;48.884;9.192;2024-01-06T01:05:19;5.88;;;2.85;;
568;SDS011;269;48.884;9.192;2024-01-06T01:07:45;3.50;;;3.20;;
568;SDS011;269;48.884;9.192;2024-01-06T01:10:12;4.28;;;3.00;;
568;SDS011;269;48.884;9.192;2024-01-06T01:12:38;4.45;;;3.22;;
568;SDS011;269;48.884;9.192;2024-01-06T01:15:07;5.20;;;2.63;;
568;SDS011;269;48.884;9.192;2024-01-06T01:17:34;4.25;;;2.65;;
568;SDS011;269;48.884;9.192;2024-01-06T01:20:02;5.80;;;3.33;;
568;SDS011;269;48.884;9.192;2024-01-06T01:22:29;4.75;;;2.83;;
568;SDS011;269;48.884;9.192;2024-01-06T01:24:56;4.90;;;2.42;;
568;SDS011;269;48.884;9.192;2024-01-06T01:27:30;4.40;;;2.60;;
568;SDS011;269;48.884;9.192;2024-01-06T01:29:56;4.57;;;2.30;;
568;SDS011;269;48.884;9.192;2024-01-06T01:32:24;2.88;;;2.10;;
568;SDS011;269;48.884;9.192;2024-01-06T01:34:51;2.88;;;2.20;;
568;SDS011;269;48.884;9.192;2024-01-06T01:37:17;3.80;;;2.40;;
568;SDS011;269;48.884;9.192;2024-01-06T01:39:44;3.72;;;2.20;;
568;SDS011;269;48.884;9.192;2024-01-06T01:42:11;3.70;;;1.67;;
568;SDS011;269;48.884;9.192;2024-01-06T01:44:40;6.00;;;2.35;;
568;SDS011;269;48.884;9.192;2024-01-06T01:47:07;4.55;;;2.35;;
568;SDS011;269;48.884;9.192;2024-01-06T01:49:35;4.97;;;1.90;;
568;SDS011;269;48.884;9.192;2024-01-06T01:52:02;3.70;;;2.10;;
568;SDS011;269;48.884;9.192;2024-01-06T01:54:29;2.15;;;1.95;;
568;SDS011;269;48.884;9.192;2024-01-06T01:56:56;2.22;;;1.75;;
568;SDS011;269;48.884;9.192;2024-01-06T01:59:22;5.50;;;2.30;;
568;SDS011;269;48.884;9.192;2024-01-06T02:01:49;2.47;;;2.00;;
568;SDS011;269;48.884;9.192;2024-01-06T02:04:15;5.30;;;2.00;;
568;SDS011;269;48.884;9.192;2024-01-06T02:06:43;3.67;;;2.00;;
568;SDS011;269;48.884;9.192;2024-01-06T02:09:10;5.30;;;2.00;;
568;SDS011;269;48.884;9.192;2024-01-06T02:11:37;3.40;;;1.83;;
568;SDS011;269;48.884;9.192;2024-01-06T02:14:03;3.85;;;2.00;;
568;SDS011;269;48.884;9.192;2024-01-06T02:16:30;3.35;;;1.85;;
568;SDS011;269;48.884;9.192;2024-01-06T02:18:56;4.07;;;1.92;;
568;SDS011;269;48.884;9.192;2024-01-06T02:21:23;3.75;;;1.45;;
568;SDS011;269;48.884;9.192;2024-01-06T02:23:51;3.85;;;1.90;;
568;SDS011;269;48.884;9.192;2024-01-06T02:26:18;3.17;;;1.65;;
568;SDS011;269;48.884;9.192;2024-01-06T02:28:45;4.43;;;1.60;;
568;SDS011;269;48.884;9.192;2024-01-06T02:31:14;4.80;;;1.90;;
568;SDS011;269;48.884;9.192;2024-01-06T02:33:40;2.88;;;2.00;;
568;SDS011;269;48.884;9.192;2024-01-06T02:36:07;4.45;;;2.05;;
568;SDS011;269;48.884;9.192;2024-01-06T02:38:34;2.83;;;1.85;;
568;SDS011;269;48.884;9.192;2024-01-06T02:41:02;3.80;;;1.67;;
568;SDS011;269;48.884;9.192;2024-01-06T02:43:28;4.00;;;1.60;;
568;SDS011;269;48.884;9.192;2024-01-06T02:45:55;2.55;;;1.80;;
568;SDS011;269;48.884;9.192;2024-01-06T02:48:22;2.55;;;1.45;;
568;SDS011;269;48.884;9.192;2024-01-06T02:50:49;3.75;;;2.13;;
568;SDS011;269;48.884;9.192;2024-01-06T02:53:16;3.70;;;2.17;;
568;SDS011;269;48.884;9.192;2024-01-06T02:55:43;2.20;;;1.60;;
568;SDS011;269;48.884;9.192;2024-01-06T02:58:11;3.13;;;1.50;;
568;SDS011;269;48.884;9.192;2024-01-06T03:00:37;3.53;;;1.80;;
568;SDS011;269;48.884;9.192;2024-01-06T03:03:05;2.28;;;1.70;;
568;SDS011;269;48.884;9.192;2024-01-06T03:05:32;6.38;;;2.03;;
568;SDS011;269;48.884;9.192;2024-01-06T03:07:59;6.25;;;1.90;;
568;SDS011;269;48.884;9.192;2024-01-06T03:10:25;3.38;;;1.55;;
568;SDS011;269;48.884;9.192;2024-01-06T03:12:52;2.67;;;1.50;;
568;SDS011;269;48.884;9.192;2024-01-06T03:15:20;2.90;;;1.70;;
568;SDS011;269;48.884;9.192;2024-01-06T03:17:46;5.82;;;2.05;;
568;SDS011;269;48.884;9.192;2024-01-06T03:20:13;4.80;;;1.80;;
568;SDS011;269;48.884;9.192;2024-01-06T03:22:40;3.53;;;1.65;;
568;SDS011;269;48.884;9.192;2024-01-06T03:25:08;2.72;;;1.85;;
568;SDS011;269;48.884;9.192;2024-01-06T03:27:34;3.60;;;2.00;;
568;SDS011;269;48.884;9.192;2024-01-06T03:30:01;2.55;;;1.63;;
568;SDS011;269;48.884;9.192;2024-01-06T03:32:29;3.10;;;1.80;;
568;SDS011;269;48.884;9.192;2024-01-06T03:34:56;3.35;;;1.58;;
568;SDS011;269;48.884;9.192;2024-01-06T03:37:24;3.55;;;2.20;;
568;SDS011;269;48.884;9.192;2024-01-06T03:39:51;5.60;;;2.00;;
568;SDS011;269;48.884;9.192;2024-01-06T03:42:17;3.05;;;1.88;;
568;SDS011;269;48.884;9.192;2024-01-06T03:44:46;1.80;;;1.33;;
568;SDS011;269;48.884;9.192;2024-01-06T03:47:13;4.47;;;1.65;;
568;SDS011;269;48.884;9.192;2024-01-06T03:49:41;3.58;;;1.35;;
568;SDS011;269;48.884;9.192;2024-01-06T03:52:07;5.72;;;1.67;;
568;SDS011;269;48.884;9.192;2024-01-06T03:54:34;3.50;;;1.88;;
568;SDS011;269;48.884;9.192;2024-01-06T03:57:00;3.80;;;1.58;;
568;SDS011;269;48.884;9.192;2024-01-06T03:59:27;6.35;;;1.98;;
568;SDS011;269;48.884;9.192;2024-01-06T04:01:53;3.72;;;1.40;;
568;SDS011;269;48.884;9.192;2024-01-06T04:04:20;3.53;;;1.35;;
568;SDS011;269;48.884;9.192;2024-01-06T04:06:49;3.22;;;1.70;;
568;SDS011;269;48.884;9.192;2024-01-06T04:09:15;2.65;;;1.88;;
568;SDS011;269;48.884;9.192;2024-01-06T04:11:42;5.60;;;1.77;;
568;SDS011;269;48.884;9.192;2024-01-06T04:14:08;3.13;;;1.80;;
568;SDS011;269;48.884;9.192;2024-01-06T04:16:35;2.03;;;1.80;;
568;SDS011;269;48.884;9.192;2024-01-06T04:19:01;4.15;;;2.08;;
568;SDS011;269;48.884;9.192;2024-01-06T04:21:28;4.35;;;1.38;;
568;SDS011;269;48.884;9.192;2024-01-06T04:23:56;3.33;;;1.60;;
568;SDS011;269;48.884;9.192;2024-01-06T04:26:22;4.63;;;2.00;;
568;SDS011;269;48.884;9.192;2024-01-06T04:28:49;3.88;;;1.70;;
568;SDS011;269;48.884;9.192;2024-01-06T04:31:15;2.22;;;1.50;;
568;SDS011;269;48.884;9.192;2024-01-06T04:33:42;4.28;;;1.90;;
568;SDS011;269;48.884;9.192;2024-01-06T04:36:08;4.20;;;1.70;;
568;SDS011;269;48.884;9.192;2024-01-06T04:38:35;4.88;;;2.10;;
568;SDS011;269;48.884;9.192;2024-01-06T04:41:03;7.15;;;2.03;;
568;SDS011;269;48.884;9.192;2024-01-06T04:43:29;4.88;;;1.95;;
568;SDS011;269;48.884;9.192;2024-01-06T04:45:56;3.03;;;1.92;;
568;SDS011;269;48.884;9.192;2024-01-06T04:48:24;2.85;;;1.42;;
568;SDS011;269;48.884;9.192;2024-01-06T04:50:50;4.50;;;2.00;;
568;SDS011;269;48.884;9.192;2024-01-06T04:53:17;2.67;;;1.40;;
568;SDS011;269;48.884;9.192;2024-01-06T04:55:45;5.35;;;1.90;;
568;SDS011;269;48.884;9.192;2024-01-06T04:58:13;3.70;;;1.92;;
568;SDS011;269;48.884;9.192;2024-01-06T05:00:40;2.88;;;2.00;;
568;SDS011;269;48.884;9.192;2024-01-06T05:03:07;10.23;;;2.80;;
568;SDS011;269;48.884;9.192;2024-01-06T05:05:33;2.70;;;1.90;;
568;SDS011;269;48.884;9.192;2024-01-06T05:08:00;4.90;;;2.03;;
568;SDS011;269;48.884;9.192;2024-01-06T05:10:26;3.20;;;1.75;;
568;SDS011;269;48.884;9.192;2024-01-06T05:12:53;5.45;;;2.00;;
568;SDS011;269;48.884;9.192;2024-01-06T05:15:21;6.38;;;2.38;;
568;SDS011;269;48.884;9.192;2024-01-06T05:17:47;3.65;;;2.30;;
568;SDS011;269;48.884;9.192;2024-01-06T05:20:14;4.45;;;2.10;;
568;SDS011;269;48.884;9.192;2024-01-06T05:22:41;6.53;;;2.53;;
568;SDS011;269;48.884;9.192;2024-01-06T05:25:07;3.08;;;2.03;;
568;SDS011;269;48.884;9.192;2024-01-06T05:27:35;2.25;;;2.00;;
568;SDS011;269;48.884;9.192;2024-01-06T05:30:01;3.92;;;1.92;;
568;SDS011;269;48.884;9.192;2024-01-06T05:32:29;3.00;;;2.45;;
568;SDS011;269;48.884;9.192;2024-01-06T05:34:56;3.85;;;2.40;;
568;SDS011;269;48.884;9.192;2024-01-06T05:37:22;4.75;;;2.28;;
568;SDS011;269;48.884;9.192;2024-01-06T05:39:49;6.20;;;2.67;;
568;SDS011;269;48.884;9.192;2024-01-06T05:42:15;3.60;;;2.28;;
568;SDS011;269;48.884;9.192;2024-01-06T05:44:42;4.07;;;2.53;;
568;SDS011;269;48.884;9.192;2024-01-06T05:47:08;7.18;;;2.90;;
568;SDS011;269;48.884;9.192;2024-01-06T05:49:40;3.50;;;2.47;;
568;SDS011;269;48.884;9.192;2024-01-06T05:52:07;4.15;;;2.40;;
568;SDS011;269;48.884;9.192;2024-01-06T05:54:34;5.20;;;2.40;;
568;SDS011;269;48.884;9.192;2024-01-06T05:57:00;4.82;;;2.30;;
568;SDS011;269;48.884;9.192;2024-01-06T05:59:28;3.42;;;2.17;;
568;SDS011;269;48.884;9.192;2024-01-06T06:01:54;4.32;;;2.50;;
568;SDS011;269;48.884;9.192;2024-01-06T06:04:21;6.15;;;2.30;;
568;SDS011;269;48.884;9.192;2024-01-06T06:06:49;4.18;;;2.58;;
568;SDS011;269;48.884;9.192;2024-01-06T06:09:16;4.00;;;2.63;;
568;SDS011;269;48.884;9.192;2024-01-06T06:11:42;4.90;;;2.70;;
568;SDS011;269;48.884;9.192;2024-01-06T06:14:09;5.53;;;2.70;;
568;SDS011;269;48.884;9.192;2024-01-06T06:16:36;3.45;;;2.50;;
568;SDS011;269;48.884;9.192;2024-01-06T06:19:02;4.78;;;2.85;;
568;SDS011;269;48.884;9.192;2024-01-06T06:21:29;4.05;;;2.70;;
568;SDS011;269;48.884;9.192;2024-01-06T06:23:57;3.50;;;2.47;;
568;SDS011;269;48.884;9.192;2024-01-06T06:26:23;3.53;;;2.80;;
568;SDS011;269;48.884;9.192;2024-01-06T06:28:50;3.58;;;3.08;;
568;SDS011;269;48.884;9.192;2024-01-06T06:31:17;3.75;;;3.33;;
568;SDS011;269;48.884;9.192;2024-01-06T06:33:43;4.82;;;3.50;;
568;SDS011;269;48.884;9.192;2024-01-06T06:36:10;7.82;;;4.18;;
568;SDS011;269;48.884;9.192;2024-01-06T06:38:36;3.40;;;3.08;;
568;SDS011;269;48.884;9.192;2024-01-06T06:41:05;5.00;;;2.95;;
568;SDS011;269;48.884;9.192;2024-01-06T06:43:31;6.07;;;3.63;;
568;SDS011;269;48.884;9.192;2024-01-06T06:45:58;8.82;;;3.70;;
568;SDS011;269;48.884;9.192;2024-01-06T06:48:25;3.70;;;3.40;;
568;SDS011;269;48.884;9.192;2024-01-06T06:50:51;4.97;;;3.30;;
568;SDS011;269;48.884;9.192;2024-01-06T06:53:18;3.42;;;2.83;;
568;SDS011;269;48.884;9.192;2024-01-06T06:55:45;6.80;;;3.20;;
568;SDS011;269;48.884;9.192;2024-01-06T06:58:13;3.35;;;3.05;;
568;SDS011;269;48.884;9.192;2024-01-06T07:00:40;3.78;;;3.47;;
568;SDS011;269;48.884;9.192;2024-01-06T07:03:08;4.28;;;3.25;;
568;SDS011;269;48.884;9.192;2024-01-06T07:05:34;6.63;;;3.70;;
568;SDS011;269;48.884;9.192;2024-01-06T07:08:01;4.47;;;3.60;;
568;SDS011;269;48.884;9.192;2024-01-06T07:10:27;3.50;;;3.20;;
568;SDS011;269;48.884;9.192;2024-01-06T07:12:56;4.40;;;4.00;;
568;SDS011;269;48.884;9.192;2024-01-06T07:15:24;4.63;;;3.75;;
568;SDS011;269;48.884;9.192;2024-01-06T07:17:51;4.20;;;3.85;;
568;SDS011;269;48.884;9.192;2024-01-06T07:20:17;7.30;;;3.80;;
568;SDS011;269;48.884;9.192;2024-01-06T07:22:44;6.68;;;4.60;;
568;SDS011;269;48.884;9.192;2024-01-06T07:25:11;3.30;;;3.00;;
568;SDS011;269;48.884;9.192;2024-01-06T07:27:38;3.67;;;3.22;;
568;SDS011;269;48.884;9.192;2024-01-06T07:30:05;3.45;;;3.22;;
568;SDS011;269;48.884;9.192;2024-01-06T07:32:35;3.60;;;3.03;;
568;SDS011;269;48.884;9.192;2024-01-06T07:35:02;4.15;;;3.47;;
568;SDS011;269;48.884;9.192;2024-01-06T07:37:28;3.20;;;2.90;;
568;SDS011;269;48.884;9.192;2024-01-06T07:39:55;3.35;;;3.05;;
568;SDS011;269;48.884;9.192;2024-01-06T07:42:22;3.60;;;3.25;;
568;SDS011;269;48.884;9.192;2024-01-06T07:44:48;5.88;;;3.53;;
568;SDS011;269;48.884;9.192;2024-01-06T07:47:15;3.50;;;3.20;;
568;SDS011;269;48.884;9.192;2024-01-06T07:49:42;2.85;;;2.65;;
568;SDS011;269;48.884;9.192;2024-01-06T07:52:09;3.15;;;2.80;;
568;SDS011;269;48.884;9.192;2024-01-06T07:54:36;4.22;;;2.90;;
568;SDS011;269;48.884;9.192;2024-01-06T07:57:03;3.20;;;2.90;;
568;SDS011;269;48.884;9.192;2024-01-06T07:59:29;4.50;;;3.88;;
568;SDS011;269;48.884;9.192;2024-01-06T08:01:56;4.38;;;3.35;;
568;SDS011;269;48.884;9.192;2024-01-06T08:04:23;3.70;;;3.40;;
568;SDS011;269;48.884;9.192;2024-01-06T08:06:51;4.38;;;3.97;;
568;SDS011;269;48.884;9.192;2024-01-06T08:09:18;3.47;;;3.10;;
568;SDS011;269;48.884;9.192;2024-01-06T08:11:44;3.28;;;2.97;;
568;SDS011;269;48.884;9.192;2024-01-06T08:14:13;3.92;;;3.63;;
568;SDS011;269;48.884;9.192;2024-01-06T08:16:41;3.70;;;3.40;;
568;SDS011;269;48.884;9.192;2024-01-06T08:19:08;4.60;;;2.88;;
568;SDS011;269;48.884;9.192;2024-01-06T08:21:34;3.80;;;2.60;;
568;SDS011;269;48.884;9.192;2024-01-06T08:24:07;3.03;;;2.83;;
568;SDS011;269;48.884;9.192;2024-01-06T08:26:34;3.40;;;3.10;;
568;SDS011;269;48.884;9.192;2024-01-06T08:29:02;3.38;;;3.08;;
568;SDS011;269;48.884;9.192;2024-01-06T08:31:28;4.85;;;3.40;;
568;SDS011;269;48.884;9.192;2024-01-06T08:33:55;3.47;;;3.17;;
568;SDS011;269;48.884;9.192;2024-01-06T08:36:21;4.55;;;3.40;;
568;SDS011;269;48.884;9.192;2024-01-06T08:38:48;3.38;;;3.08;;
568;SDS011;269;48.884;9.192;2024-01-06T08:41:16;3.00;;;2.80;;
568;SDS011;269;48.884;9.192;2024-01-06T08:43:42;3.80;;;3.50;;
568;SDS011;269;48.884;9.192;2024-01-06T08:46:09;3.50;;;3.20;;
568;SDS011;269;48.884;9.192;2024-01-06T08:48:36;3.88;;;2.88;;
568;SDS011;269;48.884;9.192;2024-01-06T08:51:03;3.72;;;3.05;;
568;SDS011;269;48.884;9.192;2024-01-06T08:53:32;3.30;;;2.88;;
568;SDS011;269;48.884;9.192;2024-01-06T08:55:58;3.58;;;3.28;;
568;SDS011;269;48.884;9.192;2024-01-06T08:58:26;3.50;;;3.20;;
568;SDS011;269;48.884;9.192;2024-01-06T09:00:52;3.08;;;2.70;;
568;SDS011;269;48.884;9.192;2024-01-06T09:03:19;3.92;;;3.55;;
568;SDS011;269;48.884;9.192;2024-01-06T09:05:50;4.13;;;3.25;;
568;SDS011;269;48.884;9.192;2024-01-06T09:08:17;3.80;;;3.50;;
568;SDS011;269;48.884;9.192;2024-01-06T09:10:43;4.38;;;3.97;;
568;SDS011;269;48.884;9.192;2024-01-06T09:13:10;3.85;;;3.45;;
568;SDS011;269;48.884;9.192;2024-01-06T09:15:38;3.78;;;3.47;;
568;SDS011;269;48.884;9.192;2024-01-06T09:18:05;3.65;;;3.30;;
568;SDS011;269;48.884;9.192;2024-01-06T09:20:31;2.80;;;2.60;;
568;SDS011;269;48.884;9.192;2024-01-06T09:22:58;3.30;;;3.00;;
568;SDS011;269;48.884;9.192;2024-01-06T09:25:24;3.60;;;2.78;;
568;SDS011;269;48.884;9.192;2024-01-06T09:27:51;2.90;;;2.70;;
568;SDS011;269;48.884;9.192;2024-01-06T09:30:18;3.75;;;3.10;;
568;SDS011;269;48.884;9.192;2024-01-06T09:32:46;3.20;;;2.90;;
568;SDS011;269;48.884;9.192;2024-01-06T09:35:12;6.32;;;2.85;;
568;SDS011;269;48.884;9.192;2024-01-06T09:37:39;2.95;;;2.75;;
568;SDS011;269;48.884;9.192;2024-01-06T09:40:08;4.72;;;3.42;;
568;SDS011;269;48.884;9.192;2024-01-06T09:42:37;3.83;;;3.47;;
568;SDS011;269;48.884;9.192;2024-01-06T09:45:04;3.15;;;2.95;;
568;SDS011;269;48.884;9.192;2024-01-06T09:47:32;4.97;;;3.95;;
568;SDS011;269;48.884;9.192;2024-01-06T09:50:03;3.00;;;2.80;;
568;SDS011;269;48.884;9.192;2024-01-06T09:52:34;3.50;;;3.20;;
568;SDS011;269;48.884;9.192;2024-01-06T09:55:04;3.78;;;2.80;;
568;SDS011;269;48.884;9.192;2024-01-06T09:57:35;3.08;;;2.85;;
568;SDS011;269;48.884;9.192;2024-01-06T10:00:01;3.40;;;3.10;;
568;SDS011;269;48.884;9.192;2024-01-06T10:02:29;3.20;;;2.90;;
568;SDS011;269;48.884;9.192;2024-01-06T10:04:56;4.68;;;2.85;;
568;SDS011;269;48.884;9.192;2024-01-06T10:07:26;3.40;;;3.10;;
568;SDS011;269;48.884;9.192;2024-01-06T10:09:54;4.03;;;3.00;;
568;SDS011;269;48.884;9.192;2024-01-06T10:12:22;3.10;;;2.80;;
568;SDS011;269;48.884;9.192;2024-01-06T10:14:49;3.15;;;2.85;;
568;SDS011;269;48.884;9.192;2024-01-06T10:17:16;3.88;;;3.25;;
568;SDS011;269;48.884;9.192;2024-01-06T10:19:44;3.20;;;3.00;;
568;SDS011;269;48.884;9.192;2024-01-06T10:22:11;3.67;;;3.38;;
568;SDS011;269;48.884;9.192;2024-01-06T10:24:40;3.50;;;3.20;;
568;SDS011;269;48.884;9.192;2024-01-06T10:27:06;4.40;;;3.45;;
568;SDS011;269;48.884;9.192;2024-01-06T10:29:34;3.50;;;3.20;;
568;SDS011;269;48.884;9.192;2024-01-06T10:32:00;4.63;;;3.17;;
568;SDS011;269;48.884;9.192;2024-01-06T10:34:27;3.63;;;3.40;;
568;SDS011;269;48.884;9.192;2024-01-06T10:36:57;3.72;;;3.30;;
568;SDS011;269;48.884;9.192;2024-01-06T10:39:23;3.45;;;3.20;;
568;SDS011;269;48.884;9.192;2024-01-06T10:41:51;3.53;;;3.20;;
568;SDS011;269;48.884;9.192;2024-01-06T10:44:18;3.60;;;3.30;;
568;SDS011;269;48.884;9.192;2024-01-06T10:46:45;4.05;;;3.63;;
568;SDS011;269;48.884;9.192;2024-01-06T10:49:13;4.88;;;4.43;;
568;SDS011;269;48.884;9.192;2024-01-06T10:51:40;4.38;;;3.95;;
568;SDS011;269;48.884;9.192;2024-01-06T10:54:07;4.05;;;3.75;;
568;SDS011;269;48.884;9.192;2024-01-06T10:56:36;4.30;;;4.00;;
568;SDS011;269;48.884;9.192;2024-01-06T10:59:05;4.47;;;4.10;;
568;SDS011;269;48.884;9.192;2024-01-06T11:01:32;4.30;;;3.90;;
568;SDS011;269;48.884;9.192;2024-01-06T11:03:59;4.68;;;4.10;;
568;SDS011;269;48.884;9.192;2024-01-06T11:06:26;4.70;;;4.30;;
568;SDS011;269;48.884;9.192;2024-01-06T11:08:54;4.47;;;4.07;;
568;SDS011;269;48.884;9.192;2024-01-06T11:11:25;4.35;;;3.95;;
568;SDS011;269;48.884;9.192;2024-01-06T11:13:52;5.07;;;4.60;;
568;SDS011;269;48.884;9.192;2024-01-06T11:16:34;5.00;;;4.03;;
568;SDS011;269;48.884;9.192;2024-01-06T11:19:01;5.30;;;4.80;;
568;SDS011;269;48.884;9.192;2024-01-06T11:21:34;7.13;;;4.93;;
568;SDS011;269;48.884;9.192;2024-01-06T11:24:07;6.57;;;6.05;;
568;SDS011;269;48.884;9.192;2024-01-06T11:26:42;5.55;;;5.05;;
568;SDS011;269;48.884;9.192;2024-01-06T11:29:11;5.45;;;4.95;;
568;SDS011;269;48.884;9.192;2024-01-06T11:31:39;5.80;;;5.30;;
568;SDS011;269;48.884;9.192;2024-01-06T11:34:12;5.82;;;5.32;;
568;SDS011;269;48.884;9.192;2024-01-06T11:36:39;5.30;;;4.85;;
568;SDS011;269;48.884;9.192;2024-01-06T11:39:05;5.25;;;4.82;;
568;SDS011;269;48.884;9.192;2024-01-06T11:41:47;5.45;;;5.00;;
568;SDS011;269;48.884;9.192;2024-01-06T11:44:17;5.60;;;5.10;;
568;SDS011;269;48.884;9.192;2024-01-06T11:46:46;5.88;;;5.38;;
568;SDS011;269;48.884;9.192;2024-01-06T11:49:19;5.15;;;4.75;;
568;SDS011;269;48.884;9.192;2024-01-06T11:51:47;5.85;;;5.45;;
568;SDS011;269;48.884;9.192;2024-01-06T11:54:13;5.53;;;5.03;;
568;SDS011;269;48.884;9.192;2024-01-06T11:56:40;5.28;;;4.75;;
568;SDS011;269;48.884;9.192;2024-01-06T11:59:06;5.80;;;5.30;;
568;SDS011;269;48.884;9.192;2024-01-06T12:01:36;5.47;;;4.93;;
568;SDS011;269;48.884;9.192;2024-01-06T12:04:04;5.43;;;5.03;;
568;SDS011;269;48.884;9.192;2024-01-06T12:06:31;4.75;;;4.45;;
568;SDS011;269;48.884;9.192;2024-01-06T12:09:03;5.60;;;5.10;;
568;SDS011;269;48.884;9.192;2024-01-06T12:11:30;5.70;;;5.15;;
568;SDS011;269;48.884;9.192;2024-01-06T12:13:56;6.32;;;5.72;;
568;SDS011;269;48.884;9.192;2024-01-06T12:16:23;5.65;;;5.15;;
568;SDS011;269;48.884;9.192;2024-01-06T12:18:52;5.53;;;5.13;;
568;SDS011;269;48.884;9.192;2024-01-06T12:21:22;6.25;;;5.85;;
568;SDS011;269;48.884;9.192;2024-01-06T12:23:48;6.03;;;5.55;;
568;SDS011;269;48.884;9.192;2024-01-06T12:26:16;6.25;;;5.75;;
568;SDS011;269;48.884;9.192;2024-01-06T12:28:44;5.78;;;5.28;;
568;SDS011;269;48.884;9.192;2024-01-06T12:31:11;5.95;;;5.43;;
568;SDS011;269;48.884;9.192;2024-01-06T12:33:37;5.85;;;5.35;;
568;SDS011;269;48.884;9.192;2024-01-06T12:36:06;6.20;;;5.70;;
568;SDS011;269;48.884;9.192;2024-01-06T12:38:35;5.95;;;5.55;;
568;SDS011;269;48.884;9.192;2024-01-06T12:41:02;5.88;;;5.38;;
568;SDS011;269;48.884;9.192;2024-01-06T12:43:29;6.60;;;6.10;;
568;SDS011;269;48.884;9.192;2024-01-06T12:45:55;6.22;;;5.72;;
568;SDS011;269;48.884;9.192;2024-01-06T12:48:23;6.40;;;5.90;;
568;SDS011;269;48.884;9.192;2024-01-06T12:50:50;6.97;;;6.38;;
568;SDS011;269;48.884;9.192;2024-01-06T12:53:16;6.78;;;5.95;;
568;SDS011;269;48.884;9.192;2024-01-06T12:55:44;6.88;;;6.28;;
568;SDS011;269;48.884;9.192;2024-01-06T12:58:11;7.25;;;6.55;;
568;SDS011;269;48.884;9.192;2024-01-06T13:00:37;6.97;;;6.38;;
568;SDS011;269;48.884;9.192;2024-01-06T13:03:05;7.13;;;6.50;;
568;SDS011;269;48.884;9.192;2024-01-06T13:05:33;7.50;;;6.80;;
568;SDS011;269;48.884;9.192;2024-01-06T13:08:00;8.05;;;7.30;;
568;SDS011;269;48.884;9.192;2024-01-06T13:10:27;9.02;;;8.15;;
568;SDS011;269;48.884;9.192;2024-01-06T13:12:55;7.53;;;6.93;;
568;SDS011;269;48.884;9.192;2024-01-06T13:15:21;7.50;;;6.40;;
568;SDS011;269;48.884;9.192;2024-01-06T13:17:48;7.43;;;6.78;;
568;SDS011;269;48.884;9.192;2024-01-06T13:20:16;7.60;;;7.00;;
568;SDS011;269;48.884;9.192;2024-01-06T13:22:43;7.93;;;7.30;;
568;SDS011;269;48.884;9.192;2024-01-06T13:25:09;8.10;;;7.40;;
568;SDS011;269;48.884;9.192;2024-01-06T13:27:36;8.20;;;7.40;;
568;SDS011;269;48.884;9.192;2024-01-06T13:30:06;8.95;;;8.15;;
568;SDS011;269;48.884;9.192;2024-01-06T13:32:33;9.55;;;8.55;;
568;SDS011;269;48.884;9.192;2024-01-06T13:35:00;8.60;;;7.90;;
568;SDS011;269;48.884;9.192;2024-01-06T13:37:29;9.18;;;8.30;;
568;SDS011;269;48.884;9.192;2024-01-06T13:39:57;9.50;;;8.50;;
568;SDS011;269;48.884;9.192;2024-01-06T13:42:23;8.52;;;7.82;;
568;SDS011;269;48.884;9.192;2024-01-06T13:44:51;8.48;;;7.78;;
568;SDS011;269;48.884;9.192;2024-01-06T13:47:19;10.23;;;8.88;;
568;SDS011;269;48.884;9.192;2024-01-06T13:49:46;8.15;;;7.32;;
568;SDS011;269;48.884;9.192;2024-01-06T13:52:12;8.50;;;7.80;;
568;SDS011;269;48.884;9.192;2024-01-06T13:54:39;8.77;;;8.00;;
568;SDS011;269;48.884;9.192;2024-01-06T13:57:05;8.43;;;7.68;;
568;SDS011;269;48.884;9.192;2024-01-06T13:59:32;8.77;;;8.07;;
568;SDS011;269;48.884;9.192;2024-01-06T14:02:02;9.02;;;8.23;;
568;SDS011;269;48.884;9.192;2024-01-06T14:04:32;8.90;;;8.10;;
568;SDS011;269;48.884;9.192;2024-01-06T14:06:58;9.55;;;8.55;;
568;SDS011;269;48.884;9.192;2024-01-06T14:09:26;9.68;;;8.68;;
568;SDS011;269;48.884;9.192;2024-01-06T14:11:53;10.00;;;9.00;;
568;SDS011;269;48.884;9.192;2024-01-06T14:14:20;9.38;;;8.57;;
568;SDS011;269;48.884;9.192;2024-01-06T14:16:47;9.43;;;8.48;;
568;SDS011;269;48.884;9.192;2024-01-06T14:19:13;8.80;;;8.10;;
568;SDS011;269;48.884;9.192;2024-01-06T14:21:41;9.32;;;8.30;;
568;SDS011;269;48.884;9.192;2024-01-06T14:24:08;8.30;;;7.60;;
568;SDS011;269;48.884;9.192;2024-01-06T14:26:34;9.27;;;8.43;;
568;SDS011;269;48.884;9.192;2024-01-06T14:29:01;9.70;;;8.90;;
568;SDS011;269;48.884;9.192;2024-01-06T14:31:28;9.35;;;8.65;;
568;SDS011;269;48.884;9.192;2024-01-06T14:33:54;9.52;;;8.73;;
568;SDS011;269;48.884;9.192;2024-01-06T14:36:21;9.50;;;8.60;;
568;SDS011;269;48.884;9.192;2024-01-06T14:38:50;8.80;;;8.10;;
568;SDS011;269;48.884;9.192;2024-01-06T14:41:17;10.23;;;9.18;;
568;SDS011;269;48.884;9.192;2024-01-06T14:43:44;10.18;;;9.23;;
568;SDS011;269;48.884;9.192;2024-01-06T14:46:10;11.60;;;10.48;;
568;SDS011;269;48.884;9.192;2024-01-06T14:48:38;9.70;;;8.70;;
568;SDS011;269;48.884;9.192;2024-01-06T14:51:04;10.02;;;9.13;;
568;SDS011;269;48.884;9.192;2024-01-06T14:53:31;10.93;;;10.02;;
568;SDS011;269;48.884;9.192;2024-01-06T14:56:01;9.90;;;9.10;;
568;SDS011;269;48.884;9.192;2024-01-06T14:58:29;10.10;;;9.30;;
568;SDS011;269;48.884;9.192;2024-01-06T15:00:55;10.50;;;9.45;;
568;SDS011;269;48.884;9.192;2024-01-06T15:03:22;9.90;;;8.98;;
568;SDS011;269;48.884;9.192;2024-01-06T15:05:49;10.48;;;9.50;;
568;SDS011;269;48.884;9.192;2024-01-06T15:08:16;10.18;;;9.20;;
568;SDS011;269;48.884;9.192;2024-01-06T15:10:42;8.95;;;8.15;;
568;SDS011;269;48.884;9.192;2024-01-06T15:13:10;10.43;;;9.52;;
568;SDS011;269;48.884;9.192;2024-01-06T15:15:37;10.75;;;9.65;;
568;SDS011;269;48.884;9.192;2024-01-06T15:18:04;10.77;;;9.77;;
568;SDS011;269;48.884;9.192;2024-01-06T15:20:31;11.93;;;10.85;;
568;SDS011;269;48.884;9.192;2024-01-06T15:22:58;11.57;;;10.40;;
568;SDS011;269;48.884;9.192;2024-01-06T15:25:24;11.95;;;10.95;;
568;SDS011;269;48.884;9.192;2024-01-06T15:27:51;10.95;;;9.95;;
568;SDS011;269;48.884;9.192;2024-01-06T15:30:19;10.93;;;9.93;;
568;SDS011;269;48.884;9.192;2024-01-06T15:32:45;11.15;;;10.13;;
568;SDS011;269;48.884;9.192;2024-01-06T15:35:12;12.55;;;11.25;;
568;SDS011;269;48.884;9.192;2024-01-06T15:37:39;12.18;;;11.05;;
568;SDS011;269;48.884;9.192;2024-01-06T15:40:06;13.25;;;11.90;;
568;SDS011;269;48.884;9.192;2024-01-06T15:42:34;12.55;;;11.25;;
568;SDS011;269;48.884;9.192;2024-01-06T15:45:01;11.80;;;10.65;;